sensor_id;sensor_type;location;lat;lon;timestamp;temperature;humidity
14140;DHT22;7150;53.514;9.988;2024-03-23T00:56:10;10.60;99.90
14140;DHT22;7150;53.514;9.988;2024-03-23T00:58:35;10.60;99.90
14140;DHT22;7150;53.514;9.988;2024-03-23T01:01:01;10.70;99.90
14140;DHT22;7150;53.514;9.988;2024-03-23T01:03:29;10.70;99.90
14140;DHT22;7150;53.514;9.988;2024-03-23T01:05:54;10.70;99.90
14140;DHT22;7150;53.514;9.988;2024-03-23T01:08:20;10.60;99.90
14140;DHT22;7150;53.514;9.988;2024-03-23T01:11:01;10.70;99.90
14140;DHT22;7150;53.514;9.988;2024-03-23T01:13:28;10.70;99.90
14140;DHT22;7150;53.514;9.988;2024-03-23T01:15:55;10.60;99.90
14140;DHT22;7150;53.514;9.988;2024-03-23T01:18:21;10.60;99.90
14140;DHT22;7150;53.514;9.988;2024-03-23T01:20:47;10.60;99.90
14140;DHT22;7150;53.514;9.988;2024-03-23T01:23:13;10.60;99.90
14140;DHT22;7150;53.514;9.988;2024-03-23T01:25:38;10.70;99.90
14140;DHT22;7150;53.514;9.988;2024-03-23T01:28:04;10.70;99.90
14140;DHT22;7150;53.514;9.988;2024-03-23T01:30:31;10.70;99.90
14140;DHT22;7150;53.514;9.988;2024-03-23T01:32:57;10.70;99.90
14140;DHT22;7150;53.514;9.988;2024-03-23T01:35:22;10.70;99.90
14140;DHT22;7150;53.514;9.988;2024-03-23T01:37:48;10.70;99.90
14140;DHT22;7150;53.514;9.988;2024-03-23T01:40:14;10.70;99.90
14140;DHT22;7150;53.514;9.988;2024-03-23T01:42:41;10.70;99.90
14140;DHT22;7150;53.514;9.988;2024-03-23T01:45:08;10.70;99.90
14140;DHT22;7150;53.514;9.988;2024-03-23T01:47:34;10.70;99.90
14140;DHT22;7150;53.514;9.988;2024-03-23T01:49:59;10.70;99.90
14140;DHT22;7150;53.514;9.988;2024-03-23T01:52:26;10.70;99.90
14140;DHT22;7150;53.514;9.988;2024-03-23T01:54:52;10.70;99.90
14140;DHT22;7150;53.514;9.988;2024-03-23T01:57:19;10.60;99.90
14140;DHT22;7150;53.514;9.988;2024-03-23T01:59:46;10.60;99.90
14140;DHT22;7150;53.514;9.988;2024-03-23T02:02:12;10.60;99.90
14140;DHT22;7150;53.514;9.988;2024-03-23T02:04:37;10.60;99.90
14140;DHT22;7150;53.514;9.988;2024-03-23T02:07:03;10.70;99.90
14140;DHT22;7150;53.514;9.988;2024-03-23T02:09:30;10.60;99.90
14140;DHT22;7150;53.514;9.988;2024-03-23T02:11:57;10.60;99.90
14140;DHT22;7150;53.514;9.988;2024-03-23T02:14:22;10.60;99.90
14140;DHT22;7150;53.514;9.988;2024-03-23T02:16:48;10.60;99.90
14140;DHT22;7150;53.514;9.988;2024-03-23T02:19:13;10.60;99.90
14140;DHT22;7150;53.514;9.988;2024-03-23T02:21:39;10.50;99.90
14140;DHT22;7150;53.514;9.988;2024-03-23T02:24:04;10.50;99.90
14140;DHT22;7150;53.514;9.988;2024-03-23T02:26:30;10.50;99.90
14140;DHT22;7150;53.514;9.988;2024-03-23T02:28:55;10.50;99.90
14140;DHT22;7150;53.514;9.988;2024-03-23T02:31:21;10.40;99.90
14140;DHT22;7150;53.514;9.988;2024-03-23T02:33:46;10.40;99.90
14140;DHT22;7150;53.514;9.988;2024-03-23T02:36:12;10.40;99.90
14140;DHT22;7150;53.514;9.988;2024-03-23T02:38:37;10.40;99.90
14140;DHT22;7150;53.514;9.988;2024-03-23T02:41:03;10.40;99.90
14140;DHT22;7150;53.514;9.988;2024-03-23T02:43:29;10.30;99.90
14140;DHT22;7150;53.514;9.988;2024-03-23T02:45:55;10.30;99.90
14140;DHT22;7150;53.514;9.988;2024-03-23T02:48:20;10.30;99.90
14140;DHT22;7150;53.514;9.988;2024-03-23T02:50:46;10.20;99.90
14140;DHT22;7150;53.514;9.988;2024-03-23T02:53:11;10.20;99.90
14140;DHT22;7150;53.514;9.988;2024-03-23T02:55:37;10.10;99.90
14140;DHT22;7150;53.514;9.988;2024-03-23T02:58:02;10.10;99.90
14140;DHT22;7150;53.514;9.988;2024-03-23T03:00:28;10.10;99.90
14140;DHT22;7150;53.514;9.988;2024-03-23T03:02:54;10.10;99.90
14140;DHT22;7150;53.514;9.988;2024-03-23T03:05:20;10.10;99.90
14140;DHT22;7150;53.514;9.988;2024-03-23T03:07:45;10.10;99.90
14140;DHT22;7150;53.514;9.988;2024-03-23T03:10:10;10.10;99.90
14140;DHT22;7150;53.514;9.988;2024-03-23T03:12:37;10.20;99.90
14140;DHT22;7150;53.514;9.988;2024-03-23T03:15:03;10.20;99.90
14140;DHT22;7150;53.514;9.988;2024-03-23T03:17:30;10.20;99.90
14140;DHT22;7150;53.514;9.988;2024-03-23T03:19:55;10.20;99.90
14140;DHT22;7150;53.514;9.988;2024-03-23T03:22:22;10.30;99.90
14140;DHT22;7150;53.514;9.988;2024-03-23T03:24:47;10.30;99.90
14140;DHT22;7150;53.514;9.988;2024-03-23T03:27:13;10.30;99.90
14140;DHT22;7150;53.514;9.988;2024-03-23T03:29:38;10.30;99.90
14140;DHT22;7150;53.514;9.988;2024-03-23T03:32:04;10.30;99.90
14140;DHT22;7150;53.514;9.988;2024-03-23T03:34:30;10.30;99.90
14140;DHT22;7150;53.514;9.988;2024-03-23T03:36:56;10.30;99.90
14140;DHT22;7150;53.514;9.988;2024-03-23T03:39:22;10.20;99.90
14140;DHT22;7150;53.514;9.988;2024-03-23T03:41:48;10.20;99.90
14140;DHT22;7150;53.514;9.988;2024-03-23T03:44:14;10.20;99.90
14140;DHT22;7150;53.514;9.988;2024-03-23T03:46:39;10.20;99.90
14140;DHT22;7150;53.514;9.988;2024-03-23T03:49:04;10.20;99.90
14140;DHT22;7150;53.514;9.988;2024-03-23T03:51:30;10.20;99.90
14140;DHT22;7150;53.514;9.988;2024-03-23T03:53:56;10.10;99.90
14140;DHT22;7150;53.514;9.988;2024-03-23T03:56:21;10.10;99.90
14140;DHT22;7150;53.514;9.988;2024-03-23T03:58:48;10.10;99.90
14140;DHT22;7150;53.514;9.988;2024-03-23T04:01:13;10.00;99.90
14140;DHT22;7150;53.514;9.988;2024-03-23T04:03:39;10.00;99.90
14140;DHT22;7150;53.514;9.988;2024-03-23T04:06:11;10.00;99.90
14140;DHT22;7150;53.514;9.988;2024-03-23T04:08:37;9.90;99.90
14140;DHT22;7150;53.514;9.988;2024-03-23T04:11:03;9.90;99.90
14140;DHT22;7150;53.514;9.988;2024-03-23T04:13:28;9.90;99.90
14140;DHT22;7150;53.514;9.988;2024-03-23T04:15:57;9.90;99.90
14140;DHT22;7150;53.514;9.988;2024-03-23T04:18:22;9.90;99.90
14140;DHT22;7150;53.514;9.988;2024-03-23T04:20:49;9.80;99.90
14140;DHT22;7150;53.514;9.988;2024-03-23T04:23:14;9.80;99.90
14140;DHT22;7150;53.514;9.988;2024-03-23T04:25:40;9.80;99.90
14140;DHT22;7150;53.514;9.988;2024-03-23T04:28:05;9.80;99.90
14140;DHT22;7150;53.514;9.988;2024-03-23T04:30:32;9.80;99.90
14140;DHT22;7150;53.514;9.988;2024-03-23T04:32:57;9.80;99.90
14140;DHT22;7150;53.514;9.988;2024-03-23T04:35:26;9.90;99.90
14140;DHT22;7150;53.514;9.988;2024-03-23T04:37:53;9.80;99.90
14140;DHT22;7150;53.514;9.988;2024-03-23T04:40:18;9.80;99.90
14140;DHT22;7150;53.514;9.988;2024-03-23T04:42:44;9.80;99.90
14140;DHT22;7150;53.514;9.988;2024-03-23T04:45:09;9.90;99.90
14140;DHT22;7150;53.514;9.988;2024-03-23T04:47:36;9.80;99.90
14140;DHT22;7150;53.514;9.988;2024-03-23T04:50:02;9.80;99.90
14140;DHT22;7150;53.514;9.988;2024-03-23T04:52:29;9.80;99.90
14140;DHT22;7150;53.514;9.988;2024-03-23T04:54:54;9.70;99.90
14140;DHT22;7150;53.514;9.988;2024-03-23T04:57:20;9.70;99.90
14140;DHT22;7150;53.514;9.988;2024-03-23T04:59:45;9.70;99.90
14140;DHT22;7150;53.514;9.988;2024-03-23T05:02:11;9.70;99.90
14140;DHT22;7150;53.514;9.988;2024-03-23T05:04:36;9.70;99.90
14140;DHT22;7150;53.514;9.988;2024-03-23T05:07:02;9.70;99.90
14140;DHT22;7150;53.514;9.988;2024-03-23T05:09:28;9.70;99.90
14140;DHT22;7150;53.514;9.988;2024-03-23T05:11:56;9.70;99.90
14140;DHT22;7150;53.514;9.988;2024-03-23T05:14:21;9.70;99.90
14140;DHT22;7150;53.514;9.988;2024-03-23T05:16:47;9.80;99.90
14140;DHT22;7150;53.514;9.988;2024-03-23T05:19:12;9.70;99.90
14140;DHT22;7150;53.514;9.988;2024-03-23T05:21:38;9.70;99.90
14140;DHT22;7150;53.514;9.988;2024-03-23T05:24:03;9.70;99.90
14140;DHT22;7150;53.514;9.988;2024-03-23T05:26:29;9.70;99.90
14140;DHT22;7150;53.514;9.988;2024-03-23T05:28:55;9.70;99.90
14140;DHT22;7150;53.514;9.988;2024-03-23T05:31:28;9.70;99.90
14140;DHT22;7150;53.514;9.988;2024-03-23T05:33:54;9.70;99.90
14140;DHT22;7150;53.514;9.988;2024-03-23T05:36:20;9.70;99.90
14140;DHT22;7150;53.514;9.988;2024-03-23T05:38:45;9.80;99.90
14140;DHT22;7150;53.514;9.988;2024-03-23T05:41:11;9.80;99.90
14140;DHT22;7150;53.514;9.988;2024-03-23T05:43:36;9.90;99.90
14140;DHT22;7150;53.514;9.988;2024-03-23T05:46:02;9.90;99.90
14140;DHT22;7150;53.514;9.988;2024-03-23T05:48:28;9.90;99.90
14140;DHT22;7150;53.514;9.988;2024-03-23T05:50:55;9.90;99.90
14140;DHT22;7150;53.514;9.988;2024-03-23T05:53:21;9.80;99.90
14140;DHT22;7150;53.514;9.988;2024-03-23T05:55:46;9.70;99.90
14140;DHT22;7150;53.514;9.988;2024-03-23T05:58:16;9.70;99.90
14140;DHT22;7150;53.514;9.988;2024-03-23T06:00:42;9.60;99.90
14140;DHT22;7150;53.514;9.988;2024-03-23T06:03:08;9.60;99.90
14140;DHT22;7150;53.514;9.988;2024-03-23T06:05:34;9.60;99.90
14140;DHT22;7150;53.514;9.988;2024-03-23T06:07:59;9.60;99.90
14140;DHT22;7150;53.514;9.988;2024-03-23T06:10:25;9.60;99.90
14140;DHT22;7150;53.514;9.988;2024-03-23T06:12:50;9.50;99.90
14140;DHT22;7150;53.514;9.988;2024-03-23T06:15:18;9.50;99.90
14140;DHT22;7150;53.514;9.988;2024-03-23T06:17:44;9.50;99.90
14140;DHT22;7150;53.514;9.988;2024-03-23T06:20:10;9.50;99.90
14140;DHT22;7150;53.514;9.988;2024-03-23T06:22:36;9.60;99.90
14140;DHT22;7150;53.514;9.988;2024-03-23T06:25:01;9.60;99.90
14140;DHT22;7150;53.514;9.988;2024-03-23T06:27:27;9.60;99.90
14140;DHT22;7150;53.514;9.988;2024-03-23T06:29:52;9.70;99.90
14140;DHT22;7150;53.514;9.988;2024-03-23T06:32:18;9.70;99.90
14140;DHT22;7150;53.514;9.988;2024-03-23T06:34:44;9.70;99.90
14140;DHT22;7150;53.514;9.988;2024-03-23T06:37:10;9.60;99.90
14140;DHT22;7150;53.514;9.988;2024-03-23T06:39:36;9.60;99.90
14140;DHT22;7150;53.514;9.988;2024-03-23T06:42:02;9.60;99.90
14140;DHT22;7150;53.514;9.988;2024-03-23T06:44:28;9.60;99.90
14140;DHT22;7150;53.514;9.988;2024-03-23T06:46:54;9.60;99.90
14140;DHT22;7150;53.514;9.988;2024-03-23T06:49:20;9.70;99.90
14140;DHT22;7150;53.514;9.988;2024-03-23T06:51:46;9.60;99.90
14140;DHT22;7150;53.514;9.988;2024-03-23T06:54:11;9.60;99.90
14140;DHT22;7150;53.514;9.988;2024-03-23T06:56:37;9.60;99.90
14140;DHT22;7150;53.514;9.988;2024-03-23T06:59:03;9.60;99.90
14140;DHT22;7150;53.514;9.988;2024-03-23T07:01:28;9.60;99.90
14140;DHT22;7150;53.514;9.988;2024-03-23T07:03:54;9.60;99.90
14140;DHT22;7150;53.514;9.988;2024-03-23T07:06:20;9.50;99.90
14140;DHT22;7150;53.514;9.988;2024-03-23T07:08:45;9.50;99.90
14140;DHT22;7150;53.514;9.988;2024-03-23T07:11:11;9.50;99.90
14140;DHT22;7150;53.514;9.988;2024-03-23T07:13:36;9.50;99.90
14140;DHT22;7150;53.514;9.988;2024-03-23T07:16:02;9.50;99.90
14140;DHT22;7150;53.514;9.988;2024-03-23T07:18:27;9.50;99.90
14140;DHT22;7150;53.514;9.988;2024-03-23T07:20:56;9.50;99.90
14140;DHT22;7150;53.514;9.988;2024-03-23T07:23:24;9.50;99.90
14140;DHT22;7150;53.514;9.988;2024-03-23T07:26:03;9.50;99.90
14140;DHT22;7150;53.514;9.988;2024-03-23T07:28:33;9.50;99.90
14140;DHT22;7150;53.514;9.988;2024-03-23T07:31:09;9.50;99.90
14140;DHT22;7150;53.514;9.988;2024-03-23T07:33:37;9.50;99.90
14140;DHT22;7150;53.514;9.988;2024-03-23T07:36:03;9.50;99.90
14140;DHT22;7150;53.514;9.988;2024-03-23T07:38:29;9.40;99.90
14140;DHT22;7150;53.514;9.988;2024-03-23T07:41:03;9.40;99.90
14140;DHT22;7150;53.514;9.988;2024-03-23T07:43:29;9.30;99.90
14140;DHT22;7150;53.514;9.988;2024-03-23T07:45:54;9.40;99.90
14140;DHT22;7150;53.514;9.988;2024-03-23T07:48:23;9.40;99.90
14140;DHT22;7150;53.514;9.988;2024-03-23T07:51:07;9.40;99.90
14140;DHT22;7150;53.514;9.988;2024-03-23T07:53:34;9.30;99.90
14140;DHT22;7150;53.514;9.988;2024-03-23T07:56:01;9.40;99.90
14140;DHT22;7150;53.514;9.988;2024-03-23T07:58:28;9.40;99.90
14140;DHT22;7150;53.514;9.988;2024-03-23T08:00:54;9.50;99.90
14140;DHT22;7150;53.514;9.988;2024-03-23T08:03:20;9.50;99.90
14140;DHT22;7150;53.514;9.988;2024-03-23T08:05:46;9.60;99.90
14140;DHT22;7150;53.514;9.988;2024-03-23T08:08:11;9.70;99.90
14140;DHT22;7150;53.514;9.988;2024-03-23T08:10:47;9.70;99.90
14140;DHT22;7150;53.514;9.988;2024-03-23T08:13:12;9.80;99.90
14140;DHT22;7150;53.514;9.988;2024-03-23T08:15:38;9.80;99.90
14140;DHT22;7150;53.514;9.988;2024-03-23T08:18:03;9.80;99.90
14140;DHT22;7150;53.514;9.988;2024-03-23T08:20:29;9.90;99.90
14140;DHT22;7150;53.514;9.988;2024-03-23T08:22:55;9.90;99.90
14140;DHT22;7150;53.514;9.988;2024-03-23T08:25:20;10.00;99.90
14140;DHT22;7150;53.514;9.988;2024-03-23T08:27:46;10.00;99.90
14140;DHT22;7150;53.514;9.988;2024-03-23T08:30:11;10.00;99.90
14140;DHT22;7150;53.514;9.988;2024-03-23T08:32:37;10.00;99.90
14140;DHT22;7150;53.514;9.988;2024-03-23T08:35:03;10.20;99.90
14140;DHT22;7150;53.514;9.988;2024-03-23T08:37:29;10.20;99.90
14140;DHT22;7150;53.514;9.988;2024-03-23T08:39:54;10.20;99.90
14140;DHT22;7150;53.514;9.988;2024-03-23T08:42:20;10.30;99.90
14140;DHT22;7150;53.514;9.988;2024-03-23T08:44:47;10.30;99.90
14140;DHT22;7150;53.514;9.988;2024-03-23T08:47:15;10.40;99.90
14140;DHT22;7150;53.514;9.988;2024-03-23T08:49:40;10.40;99.90
14140;DHT22;7150;53.514;9.988;2024-03-23T08:52:06;10.50;99.90
14140;DHT22;7150;53.514;9.988;2024-03-23T08:54:32;10.50;99.90
14140;DHT22;7150;53.514;9.988;2024-03-23T08:56:57;10.50;99.90
14140;DHT22;7150;53.514;9.988;2024-03-23T08:59:23;10.40;99.90
14140;DHT22;7150;53.514;9.988;2024-03-23T09:01:49;10.50;99.90
14140;DHT22;7150;53.514;9.988;2024-03-23T09:04:14;10.50;99.90
14140;DHT22;7150;53.514;9.988;2024-03-23T09:06:42;10.60;99.90
14140;DHT22;7150;53.514;9.988;2024-03-23T09:09:08;10.60;99.90
14140;DHT22;7150;53.514;9.988;2024-03-23T09:11:33;10.60;99.90
14140;DHT22;7150;53.514;9.988;2024-03-23T09:13:59;10.70;99.90
14140;DHT22;7150;53.514;9.988;2024-03-23T09:16:25;10.70;99.90
14140;DHT22;7150;53.514;9.988;2024-03-23T09:18:51;10.70;99.90
14140;DHT22;7150;53.514;9.988;2024-03-23T09:21:17;10.70;99.90
14140;DHT22;7150;53.514;9.988;2024-03-23T09:23:46;10.70;99.90
14140;DHT22;7150;53.514;9.988;2024-03-23T09:26:11;10.70;99.90
14140;DHT22;7150;53.514;9.988;2024-03-23T09:28:37;10.80;99.90
14140;DHT22;7150;53.514;9.988;2024-03-23T09:31:07;10.80;99.90
14140;DHT22;7150;53.514;9.988;2024-03-23T09:33:35;10.80;99.90
14140;DHT22;7150;53.514;9.988;2024-03-23T09:36:04;10.80;99.90
14140;DHT22;7150;53.514;9.988;2024-03-23T09:38:30;10.90;99.90
14140;DHT22;7150;53.514;9.988;2024-03-23T09:40:57;10.90;99.90
14140;DHT22;7150;53.514;9.988;2024-03-23T09:43:22;11.00;99.90
14140;DHT22;7150;53.514;9.988;2024-03-23T09:45:49;11.00;99.90
14140;DHT22;7150;53.514;9.988;2024-03-23T09:48:15;11.00;99.90
14140;DHT22;7150;53.514;9.988;2024-03-23T09:50:42;11.10;99.90
14140;DHT22;7150;53.514;9.988;2024-03-23T09:53:09;11.10;99.90
14140;DHT22;7150;53.514;9.988;2024-03-23T09:55:35;11.10;99.90
14140;DHT22;7150;53.514;9.988;2024-03-23T09:58:01;11.20;99.90
14140;DHT22;7150;53.514;9.988;2024-03-23T10:00:27;11.20;99.90
14140;DHT22;7150;53.514;9.988;2024-03-23T10:02:55;11.20;99.90
14140;DHT22;7150;53.514;9.988;2024-03-23T10:05:22;11.20;99.90
14140;DHT22;7150;53.514;9.988;2024-03-23T10:07:49;11.20;99.90
14140;DHT22;7150;53.514;9.988;2024-03-23T10:10:16;11.20;99.90
14140;DHT22;7150;53.514;9.988;2024-03-23T10:12:49;11.20;99.90
14140;DHT22;7150;53.514;9.988;2024-03-23T10:15:22;11.20;99.90
14140;DHT22;7150;53.514;9.988;2024-03-23T10:17:47;11.20;99.90
14140;DHT22;7150;53.514;9.988;2024-03-23T10:20:18;11.20;99.90
14140;DHT22;7150;53.514;9.988;2024-03-23T10:22:44;11.20;99.60
14140;DHT22;7150;53.514;9.988;2024-03-23T10:25:11;11.20;99.40
14140;DHT22;7150;53.514;9.988;2024-03-23T10:27:36;11.20;99.30
14140;DHT22;7150;53.514;9.988;2024-03-23T10:30:10;11.20;99.20
14140;DHT22;7150;53.514;9.988;2024-03-23T10:32:35;11.20;99.30
14140;DHT22;7150;53.514;9.988;2024-03-23T10:37:41;11.40;99.30
14140;DHT22;7150;53.514;9.988;2024-03-23T10:40:08;11.40;99.40
14140;DHT22;7150;53.514;9.988;2024-03-23T10:42:34;11.50;99.20
14140;DHT22;7150;53.514;9.988;2024-03-23T10:45:00;11.60;99.30
14140;DHT22;7150;53.514;9.988;2024-03-23T10:47:26;11.70;99.30
14140;DHT22;7150;53.514;9.988;2024-03-23T10:49:51;11.70;98.60
14140;DHT22;7150;53.514;9.988;2024-03-23T10:52:17;11.70;98.60
14140;DHT22;7150;53.514;9.988;2024-03-23T10:54:44;11.90;98.60
14140;DHT22;7150;53.514;9.988;2024-03-23T10:57:15;11.80;98.70
14140;DHT22;7150;53.514;9.988;2024-03-23T10:59:44;11.80;98.90
14140;DHT22;7150;53.514;9.988;2024-03-23T11:02:19;11.80;99.30
14140;DHT22;7150;53.514;9.988;2024-03-23T11:04:45;11.80;99.90
14140;DHT22;7150;53.514;9.988;2024-03-23T11:09:54;11.70;99.90
14140;DHT22;7150;53.514;9.988;2024-03-23T11:15:33;11.60;99.90
14140;DHT22;7150;53.514;9.988;2024-03-23T11:17:40;11.60;99.90
14140;DHT22;7150;53.514;9.988;2024-03-23T11:20:06;11.60;99.90
14140;DHT22;7150;53.514;9.988;2024-03-23T11:22:45;11.50;99.30
14140;DHT22;7150;53.514;9.988;2024-03-23T11:25:22;11.50;98.80
14140;DHT22;7150;53.514;9.988;2024-03-23T11:27:50;11.50;98.70
14140;DHT22;7150;53.514;9.988;2024-03-23T11:30:17;11.40;98.70
14140;DHT22;7150;53.514;9.988;2024-03-23T11:32:45;11.50;98.30
14140;DHT22;7150;53.514;9.988;2024-03-23T11:35:24;11.60;98.40
14140;DHT22;7150;53.514;9.988;2024-03-23T11:38:02;11.60;98.50
14140;DHT22;7150;53.514;9.988;2024-03-23T11:40:27;11.80;98.60
14140;DHT22;7150;53.514;9.988;2024-03-23T11:42:59;11.80;98.60
14140;DHT22;7150;53.514;9.988;2024-03-23T11:45:25;11.80;98.40
14140;DHT22;7150;53.514;9.988;2024-03-23T11:48:08;11.90;97.80
14140;DHT22;7150;53.514;9.988;2024-03-23T11:50:36;11.80;97.70
14140;DHT22;7150;53.514;9.988;2024-03-23T11:53:07;11.70;97.70
14140;DHT22;7150;53.514;9.988;2024-03-23T11:55:55;11.80;97.90
14140;DHT22;7150;53.514;9.988;2024-03-23T11:58:23;11.60;97.80
14140;DHT22;7150;53.514;9.988;2024-03-23T12:00:56;11.50;98.00
14140;DHT22;7150;53.514;9.988;2024-03-23T12:03:21;11.50;98.20
14140;DHT22;7150;53.514;9.988;2024-03-23T12:05:51;11.50;98.00
14140;DHT22;7150;53.514;9.988;2024-03-23T12:08:29;11.60;98.10
14140;DHT22;7150;53.514;9.988;2024-03-23T12:11:16;11.60;98.20
14140;DHT22;7150;53.514;9.988;2024-03-23T12:13:44;11.60;98.30
14140;DHT22;7150;53.514;9.988;2024-03-23T12:18:41;11.50;98.70
14140;DHT22;7150;53.514;9.988;2024-03-23T12:21:07;11.50;99.10
14140;DHT22;7150;53.514;9.988;2024-03-23T12:23:33;11.50;99.30
14140;DHT22;7150;53.514;9.988;2024-03-23T12:25:59;11.40;99.10
14140;DHT22;7150;53.514;9.988;2024-03-23T12:28:24;11.30;98.60
14140;DHT22;7150;53.514;9.988;2024-03-23T12:30:51;11.30;98.70
14140;DHT22;7150;53.514;9.988;2024-03-23T12:33:17;11.20;98.30
14140;DHT22;7150;53.514;9.988;2024-03-23T12:35:43;11.20;98.10
14140;DHT22;7150;53.514;9.988;2024-03-23T12:38:08;11.10;98.20
14140;DHT22;7150;53.514;9.988;2024-03-23T12:40:33;11.20;98.50
14140;DHT22;7150;53.514;9.988;2024-03-23T12:42:59;11.20;98.60
14140;DHT22;7150;53.514;9.988;2024-03-23T12:45:24;11.20;98.60
14140;DHT22;7150;53.514;9.988;2024-03-23T12:47:50;11.10;98.90
14140;DHT22;7150;53.514;9.988;2024-03-23T12:50:19;11.10;99.20
14140;DHT22;7150;53.514;9.988;2024-03-23T12:52:44;11.00;99.00
14140;DHT22;7150;53.514;9.988;2024-03-23T12:55:10;10.90;98.90
14140;DHT22;7150;53.514;9.988;2024-03-23T12:57:36;10.80;98.90
14140;DHT22;7150;53.514;9.988;2024-03-23T13:00:02;10.70;98.90
14140;DHT22;7150;53.514;9.988;2024-03-23T13:02:28;10.60;98.90
14140;DHT22;7150;53.514;9.988;2024-03-23T13:04:54;10.60;99.20
14140;DHT22;7150;53.514;9.988;2024-03-23T13:07:20;10.50;99.10
14140;DHT22;7150;53.514;9.988;2024-03-23T13:09:47;10.40;99.50
14140;DHT22;7150;53.514;9.988;2024-03-23T13:12:14;10.30;99.90
14140;DHT22;7150;53.514;9.988;2024-03-23T13:14:40;10.30;99.90
14140;DHT22;7150;53.514;9.988;2024-03-23T13:17:06;10.20;99.90
14140;DHT22;7150;53.514;9.988;2024-03-23T13:19:32;10.10;99.90
14140;DHT22;7150;53.514;9.988;2024-03-23T13:21:58;10.10;99.90
14140;DHT22;7150;53.514;9.988;2024-03-23T13:24:25;10.00;99.90
14140;DHT22;7150;53.514;9.988;2024-03-23T13:26:51;10.00;99.90
14140;DHT22;7150;53.514;9.988;2024-03-23T13:29:21;9.90;99.90
14140;DHT22;7150;53.514;9.988;2024-03-23T13:31:47;9.90;99.90
14140;DHT22;7150;53.514;9.988;2024-03-23T13:34:13;9.80;99.90
14140;DHT22;7150;53.514;9.988;2024-03-23T13:36:46;9.70;99.90
14140;DHT22;7150;53.514;9.988;2024-03-23T13:39:12;9.70;99.90
14140;DHT22;7150;53.514;9.988;2024-03-23T13:41:42;9.70;99.90
14140;DHT22;7150;53.514;9.988;2024-03-23T13:44:09;9.70;99.90
14140;DHT22;7150;53.514;9.988;2024-03-23T13:46:41;9.70;99.90
14140;DHT22;7150;53.514;9.988;2024-03-23T13:49:25;9.70;99.90
14140;DHT22;7150;53.514;9.988;2024-03-23T13:51:52;9.80;99.90
14140;DHT22;7150;53.514;9.988;2024-03-23T13:54:18;9.80;99.90
14140;DHT22;7150;53.514;9.988;2024-03-23T13:56:43;9.90;99.90
14140;DHT22;7150;53.514;9.988;2024-03-23T13:59:09;9.90;99.90
14140;DHT22;7150;53.514;9.988;2024-03-23T14:01:35;10.00;99.90
14140;DHT22;7150;53.514;9.988;2024-03-23T14:04:01;10.00;99.90
14140;DHT22;7150;53.514;9.988;2024-03-23T14:06:26;10.10;99.90
14140;DHT22;7150;53.514;9.988;2024-03-23T14:08:52;10.10;99.90
14140;DHT22;7150;53.514;9.988;2024-03-23T14:11:18;10.20;99.90
14140;DHT22;7150;53.514;9.988;2024-03-23T14:13:44;10.30;99.90
14140;DHT22;7150;53.514;9.988;2024-03-23T14:16:10;10.30;99.90
14140;DHT22;7150;53.514;9.988;2024-03-23T14:18:35;10.40;99.90
14140;DHT22;7150;53.514;9.988;2024-03-23T14:21:01;10.40;99.90
14140;DHT22;7150;53.514;9.988;2024-03-23T14:23:27;10.40;99.90
14140;DHT22;7150;53.514;9.988;2024-03-23T14:25:55;10.50;99.90
14140;DHT22;7150;53.514;9.988;2024-03-23T14:28:21;10.50;99.90
14140;DHT22;7150;53.514;9.988;2024-03-23T14:30:48;10.50;99.90
14140;DHT22;7150;53.514;9.988;2024-03-23T14:33:15;10.60;99.90
14140;DHT22;7150;53.514;9.988;2024-03-23T14:35:40;10.70;99.90
14140;DHT22;7150;53.514;9.988;2024-03-23T14:38:06;10.70;99.90
14140;DHT22;7150;53.514;9.988;2024-03-23T14:40:31;10.70;99.80
14140;DHT22;7150;53.514;9.988;2024-03-23T14:42:57;10.70;99.70
14140;DHT22;7150;53.514;9.988;2024-03-23T14:45:22;10.70;99.70
14140;DHT22;7150;53.514;9.988;2024-03-23T14:47:53;10.70;99.60
14140;DHT22;7150;53.514;9.988;2024-03-23T14:50:18;10.80;99.70
14140;DHT22;7150;53.514;9.988;2024-03-23T14:52:44;10.80;99.60
14140;DHT22;7150;53.514;9.988;2024-03-23T14:55:11;10.80;99.60
14140;DHT22;7150;53.514;9.988;2024-03-23T14:57:36;10.90;99.60
14140;DHT22;7150;53.514;9.988;2024-03-23T15:00:02;11.00;99.40
14140;DHT22;7150;53.514;9.988;2024-03-23T15:02:30;11.20;99.50
14140;DHT22;7150;53.514;9.988;2024-03-23T15:04:57;11.20;99.00
14140;DHT22;7150;53.514;9.988;2024-03-23T15:07:23;11.20;98.80
14140;DHT22;7150;53.514;9.988;2024-03-23T15:09:48;11.20;98.90
14140;DHT22;7150;53.514;9.988;2024-03-23T15:12:14;11.20;99.40
14140;DHT22;7150;53.514;9.988;2024-03-23T15:14:39;11.20;99.80
14140;DHT22;7150;53.514;9.988;2024-03-23T15:17:05;11.10;99.90
14140;DHT22;7150;53.514;9.988;2024-03-23T15:19:32;11.10;99.90
14140;DHT22;7150;53.514;9.988;2024-03-23T15:21:58;11.00;99.90
14140;DHT22;7150;53.514;9.988;2024-03-23T15:24:23;10.90;99.90
14140;DHT22;7150;53.514;9.988;2024-03-23T15:26:49;10.80;99.90
14140;DHT22;7150;53.514;9.988;2024-03-23T15:29:17;10.70;99.90
14140;DHT22;7150;53.514;9.988;2024-03-23T15:31:43;10.70;99.90
14140;DHT22;7150;53.514;9.988;2024-03-23T15:34:09;10.60;99.90
14140;DHT22;7150;53.514;9.988;2024-03-23T15:36:37;10.60;99.90
14140;DHT22;7150;53.514;9.988;2024-03-23T15:39:06;10.60;99.90
14140;DHT22;7150;53.514;9.988;2024-03-23T15:41:32;10.50;99.90
14140;DHT22;7150;53.514;9.988;2024-03-23T15:43:59;10.50;99.90
14140;DHT22;7150;53.514;9.988;2024-03-23T15:46:25;10.50;99.90
14140;DHT22;7150;53.514;9.988;2024-03-23T15:48:50;10.50;99.90
14140;DHT22;7150;53.514;9.988;2024-03-23T15:51:16;10.50;99.90
14140;DHT22;7150;53.514;9.988;2024-03-23T15:53:43;10.50;99.90
14140;DHT22;7150;53.514;9.988;2024-03-23T15:56:08;10.40;99.90
14140;DHT22;7150;53.514;9.988;2024-03-23T15:58:34;10.40;99.90
14140;DHT22;7150;53.514;9.988;2024-03-23T16:01:04;10.40;99.90
14140;DHT22;7150;53.514;9.988;2024-03-23T16:03:31;10.40;99.90
14140;DHT22;7150;53.514;9.988;2024-03-23T16:06:02;10.50;99.90
14140;DHT22;7150;53.514;9.988;2024-03-23T16:08:28;10.50;99.90
14140;DHT22;7150;53.514;9.988;2024-03-23T16:10:54;10.40;99.90
14140;DHT22;7150;53.514;9.988;2024-03-23T16:13:20;10.40;99.90
14140;DHT22;7150;53.514;9.988;2024-03-23T16:15:53;10.40;99.90
14140;DHT22;7150;53.514;9.988;2024-03-23T16:18:19;10.40;99.90
14140;DHT22;7150;53.514;9.988;2024-03-23T16:20:52;10.40;99.90
14140;DHT22;7150;53.514;9.988;2024-03-23T16:23:18;10.30;99.90
14140;DHT22;7150;53.514;9.988;2024-03-23T16:25:50;10.20;99.90
14140;DHT22;7150;53.514;9.988;2024-03-23T16:28:26;10.10;99.90
14140;DHT22;7150;53.514;9.988;2024-03-23T16:30:58;10.00;99.90
14140;DHT22;7150;53.514;9.988;2024-03-23T16:33:24;10.00;99.90
14140;DHT22;7150;53.514;9.988;2024-03-23T16:38:23;9.80;99.90
14140;DHT22;7150;53.514;9.988;2024-03-23T16:41:00;9.80;99.90
14140;DHT22;7150;53.514;9.988;2024-03-23T16:43:27;9.70;99.90
14140;DHT22;7150;53.514;9.988;2024-03-23T16:46:00;9.70;99.90
14140;DHT22;7150;53.514;9.988;2024-03-23T16:48:27;9.80;99.90
14140;DHT22;7150;53.514;9.988;2024-03-23T16:50:53;9.80;99.90
14140;DHT22;7150;53.514;9.988;2024-03-23T16:53:19;9.90;99.90
14140;DHT22;7150;53.514;9.988;2024-03-23T16:55:44;9.90;99.90
14140;DHT22;7150;53.514;9.988;2024-03-23T16:58:10;9.90;99.90